createdAt,value
2019-04-22T00:01:40.492Z,5.33
2019-04-22T00:04:15.539Z,5.43
2019-04-22T00:07:03.278Z,5.20
2019-04-22T00:09:35.172Z,4.60
2019-04-22T00:12:07.428Z,5.30
2019-04-22T00:14:30.907Z,5.47
2019-04-22T00:17:11.316Z,5.40
2019-04-22T00:22:02.970Z,5.63
2019-04-22T00:24:25.582Z,5.33
2019-04-22T00:26:59.585Z,5.60
2019-04-22T00:29:42.334Z,5.23
2019-04-22T00:32:12.757Z,5.23
2019-04-22T00:34:42.570Z,5.10
2019-04-22T00:37:19.798Z,5.70
2019-04-22T00:42:16.452Z,5.20
2019-04-22T00:47:21.449Z,5.30
2019-04-22T00:52:12.456Z,5.60
2019-04-22T00:54:48.977Z,5.83
2019-04-22T00:57:12.329Z,5.70
2019-04-22T00:59:37.414Z,5.13
2019-04-22T01:02:06.798Z,5.53
2019-04-22T01:04:43.736Z,5.03
2019-04-22T01:07:05.098Z,4.97
2019-04-22T01:09:38.877Z,5.10
2019-04-22T01:12:12.104Z,4.80
2019-04-22T01:14:37.831Z,4.73
2019-04-22T01:16:59.689Z,5.30
2019-04-22T01:19:40.348Z,5.03
2019-04-22T01:22:11.888Z,5.10
2019-04-22T01:24:33.611Z,4.43
2019-04-22T01:26:53.806Z,4.90
2019-04-22T01:29:20.225Z,4.63
2019-04-22T01:31:40.002Z,4.83
2019-04-22T01:34:23.420Z,4.90
2019-04-22T01:36:55.452Z,4.70
2019-04-22T01:39:36.291Z,4.53
2019-04-22T01:42:05.687Z,5.10
2019-04-22T01:44:33.281Z,4.47
2019-04-22T01:47:00.256Z,4.50
2019-04-22T01:49:27.670Z,5.00
2019-04-22T01:52:11.539Z,4.43
2019-04-22T01:57:02.184Z,4.60
2019-04-22T01:59:15.629Z,5.13
2019-04-22T02:02:00.550Z,4.70
2019-04-22T02:04:30.404Z,4.57
2019-04-22T02:06:57.215Z,4.63
2019-04-22T02:14:27.608Z,4.47
2019-04-22T02:16:56.759Z,4.97
2019-04-22T02:19:22.865Z,4.87
2019-04-22T02:21:48.549Z,5.03
2019-04-22T02:24:30.139Z,5.50
2019-04-22T02:26:51.924Z,4.90
2019-04-22T02:29:27.039Z,4.67
2019-04-22T02:31:59.615Z,4.60
2019-04-22T02:34:25.130Z,4.90
2019-04-22T02:37:04.866Z,4.77
2019-04-22T02:39:20.296Z,5.07
2019-04-22T02:41:49.589Z,4.53
2019-04-22T02:44:20.374Z,4.43
2019-04-22T02:51:40.340Z,4.90
2019-04-22T02:54:40.669Z,4.80
2019-04-22T03:01:44.758Z,4.40
2019-04-22T03:04:10.966Z,4.53
2019-04-22T03:09:16.392Z,4.30
2019-04-22T03:14:08.748Z,5.10
2019-04-22T03:16:40.770Z,4.73
2019-04-22T03:24:17.560Z,4.27
2019-04-22T03:29:11.175Z,4.70
2019-04-22T03:32:36.123Z,4.97
2019-04-22T03:49:49.623Z,3.90
2019-04-22T03:52:04.972Z,4.00
2019-04-22T03:59:39.123Z,4.47
2019-04-22T04:01:59.324Z,3.97
2019-04-22T04:09:23.912Z,4.57
2019-04-22T04:16:47.752Z,4.40
2019-04-22T04:19:34.153Z,4.90
2019-04-22T04:21:41.849Z,4.50
2019-04-22T04:24:39.522Z,4.67
2019-04-22T04:29:26.009Z,4.70
2019-04-22T04:36:35.567Z,4.57
2019-04-22T04:41:54.328Z,4.50
2019-04-22T04:44:22.735Z,4.53
2019-04-22T04:46:47.511Z,4.40
2019-04-22T04:51:33.678Z,4.50
2019-04-22T04:54:05.665Z,4.90
2019-04-22T04:56:35.914Z,4.87
2019-04-22T05:06:40.021Z,4.50
2019-04-22T05:11:24.781Z,4.47
2019-04-22T05:18:52.769Z,4.07
2019-04-22T05:23:43.887Z,7.57
2019-04-22T05:26:12.559Z,8.97
2019-04-22T05:28:39.757Z,8.30
2019-04-22T05:31:08.626Z,6.57
2019-04-22T05:33:34.903Z,4.73
2019-04-22T05:36:10.167Z,5.03
2019-04-22T05:38:42.782Z,4.97
2019-04-22T05:41:02.770Z,4.60
2019-04-22T05:43:34.343Z,4.70
2019-04-22T05:46:00.751Z,4.53
2019-04-22T05:48:33.128Z,4.60
2019-04-22T05:50:56.450Z,4.47
2019-04-22T05:53:25.505Z,4.30
2019-04-22T05:55:53.902Z,4.00
2019-04-22T05:58:31.196Z,4.37
2019-04-22T06:01:34.361Z,4.27
2019-04-22T06:03:39.008Z,4.03
2019-04-22T06:06:07.785Z,4.20
2019-04-22T06:08:29.250Z,4.07
2019-04-22T06:11:08.191Z,4.10
2019-04-22T06:13:28.068Z,4.20
2019-04-22T06:15:59.008Z,3.90
2019-04-22T06:18:34.829Z,4.00
2019-04-22T06:21:09.389Z,3.87
2019-04-22T06:23:34.628Z,3.60
2019-04-22T06:26:19.437Z,3.73
2019-04-22T06:28:35.285Z,3.70
2019-04-22T06:31:03.729Z,3.50
2019-04-22T06:33:30.270Z,4.05
2019-04-22T06:35:58.999Z,4.05
2019-04-22T06:41:00.416Z,3.70
2019-04-22T06:43:22.424Z,3.95
2019-04-22T06:45:45.264Z,3.98
2019-04-22T06:48:27.941Z,3.52
2019-04-22T06:50:50.701Z,4.10
2019-04-22T06:53:17.563Z,3.40
2019-04-22T06:58:15.300Z,3.10
2019-04-22T07:00:49.426Z,3.42
2019-04-22T07:05:46.343Z,2.85
2019-04-22T07:09:02.447Z,3.10
2019-04-22T07:13:21.200Z,2.85
2019-04-22T07:15:50.370Z,2.83
2019-04-22T07:18:18.014Z,2.60
2019-04-22T07:20:44.312Z,2.45
2019-04-22T07:23:15.514Z,2.40
2019-04-22T07:25:40.760Z,1.85
2019-04-22T07:28:14.240Z,2.62
2019-04-22T07:30:41.090Z,2.85
2019-04-22T07:35:50.617Z,2.37
2019-04-22T07:38:04.384Z,2.70
2019-04-22T07:40:40.356Z,2.45
2019-04-22T07:43:09.437Z,2.35
2019-04-22T07:48:11.221Z,2.42
2019-04-22T07:50:42.756Z,2.22
2019-04-22T07:53:01.019Z,2.50
2019-04-22T07:55:30.581Z,2.30
2019-04-22T07:58:02.355Z,2.27
2019-04-22T08:00:29.142Z,2.40
2019-04-22T08:03:09.837Z,2.40
2019-04-22T08:05:32.942Z,2.50
2019-04-22T08:08:11.510Z,2.33
2019-04-22T08:13:01.811Z,2.60
2019-04-22T08:15:34.999Z,2.60
2019-04-22T08:18:20.282Z,2.58
2019-04-22T08:20:37.221Z,3.00
2019-04-22T08:23:04.673Z,2.60
2019-04-22T08:25:34.869Z,3.15
2019-04-22T08:28:03.310Z,2.45
2019-04-22T08:30:33.784Z,2.72
2019-04-22T08:33:00.686Z,2.67
2019-04-22T08:35:49.808Z,3.00
2019-04-22T08:38:02.442Z,2.75
2019-04-22T08:43:05.293Z,2.85
2019-04-22T08:47:59.075Z,2.75
2019-04-22T08:50:26.752Z,3.17
2019-04-22T08:53:00.604Z,2.20
2019-04-22T08:55:24.609Z,3.25
2019-04-22T08:58:08.384Z,3.58
2019-04-22T09:00:21.523Z,3.35
2019-04-22T09:02:53.918Z,3.22
2019-04-22T09:05:37.483Z,3.33
2019-04-22T09:07:46.551Z,2.95
2019-04-22T09:10:17.159Z,2.95
2019-04-22T09:12:56.928Z,3.55
2019-04-22T09:15:29.796Z,3.05
2019-04-22T09:17:59.207Z,3.85
2019-04-22T09:20:20.417Z,3.90
2019-04-22T09:22:57.033Z,3.47
2019-04-22T09:25:19.735Z,3.33
2019-04-22T09:30:20.308Z,3.37
2019-04-22T09:32:45.500Z,4.08
2019-04-22T09:35:09.678Z,3.35
2019-04-22T09:37:48.137Z,3.72
2019-04-22T09:40:20.270Z,2.87
2019-04-22T09:42:45.765Z,3.27
2019-04-22T09:45:10.140Z,2.87
2019-04-22T09:50:09.798Z,3.00
2019-04-22T09:52:43.747Z,2.95
2019-04-22T09:57:51.029Z,2.90
2019-04-22T10:00:11.019Z,2.35
2019-04-22T10:02:41.234Z,2.27
2019-04-22T10:05:07.874Z,2.65
2019-04-22T10:07:39.520Z,2.62
2019-04-22T10:15:00.268Z,2.58
2019-04-22T10:17:32.002Z,2.60
2019-04-22T10:20:01.117Z,2.60
2019-04-22T10:22:33.822Z,2.60
2019-04-22T10:25:01.925Z,2.12
2019-04-22T10:27:26.299Z,2.40
2019-04-22T10:29:59.573Z,2.30
2019-04-22T10:32:20.495Z,2.12
2019-04-22T10:34:40.896Z,2.08
2019-04-22T10:37:06.389Z,2.00
2019-04-22T10:39:41.111Z,2.27
2019-04-22T10:42:00.781Z,2.40
2019-04-22T10:44:28.898Z,2.60
2019-04-22T10:46:56.147Z,2.45
2019-04-22T10:49:22.814Z,2.12
2019-04-22T10:51:50.762Z,2.10
2019-04-22T10:54:17.868Z,2.22
2019-04-22T10:56:45.233Z,2.00
2019-04-22T10:59:14.421Z,2.00
2019-04-22T11:01:42.308Z,1.67
2019-04-22T11:04:11.207Z,1.87
2019-04-22T11:06:44.810Z,1.95
2019-04-22T11:09:08.697Z,1.92
2019-04-22T11:11:50.185Z,1.95
2019-04-22T11:14:10.656Z,1.70
2019-04-22T11:16:39.495Z,2.08
2019-04-22T11:19:07.747Z,2.00
2019-04-22T11:21:35.955Z,2.10
2019-04-22T11:24:03.032Z,2.20
2019-04-22T11:26:32.124Z,2.20
2019-04-22T11:29:01.468Z,1.87
2019-04-22T11:31:28.439Z,2.40
2019-04-22T11:33:56.587Z,2.50
2019-04-22T11:36:25.710Z,2.17
2019-04-22T11:38:59.587Z,2.05
2019-04-22T11:41:21.683Z,2.20
2019-04-22T11:43:49.400Z,2.42
2019-04-22T11:46:17.636Z,2.10
2019-04-22T11:48:45.588Z,2.30
2019-04-22T11:51:14.088Z,2.37
2019-04-22T11:53:40.988Z,2.45
2019-04-22T11:56:18.991Z,2.22
2019-04-22T11:58:46.965Z,2.30
2019-04-22T12:01:14.842Z,2.08
2019-04-22T12:03:42.067Z,2.22
2019-04-22T12:06:10.414Z,2.30
2019-04-22T12:08:39.649Z,1.90
2019-04-22T12:11:11.593Z,2.40
2019-04-22T12:14:04.217Z,2.00
2019-04-22T12:16:31.967Z,2.30
2019-04-22T12:19:05.239Z,2.37
2019-04-22T12:21:32.999Z,2.60
2019-04-22T12:24:01.014Z,2.20
2019-04-22T12:26:34.445Z,2.00
2019-04-22T12:29:02.790Z,2.12
2019-04-22T12:31:29.613Z,2.22
2019-04-22T12:33:57.319Z,2.30
2019-04-22T12:36:24.616Z,2.60
2019-04-22T12:38:51.648Z,2.02
2019-04-22T12:41:19.750Z,2.30
2019-04-22T12:43:49.276Z,2.30
2019-04-22T12:46:16.475Z,2.33
2019-04-22T12:48:43.413Z,2.47
2019-04-22T12:51:11.055Z,2.37
2019-04-22T12:53:38.099Z,2.58
2019-04-22T12:56:05.130Z,2.83
2019-04-22T12:58:31.817Z,2.50
2019-04-22T13:00:59.083Z,2.30
2019-04-22T13:03:26.662Z,2.58
2019-04-22T13:05:53.920Z,2.50
2019-04-22T13:08:20.922Z,2.75
2019-04-22T13:10:55.276Z,2.25
2019-04-22T13:13:16.339Z,2.37
2019-04-22T13:15:44.513Z,2.17
2019-04-22T13:18:19.175Z,2.15
2019-04-22T13:20:40.184Z,2.27
2019-04-22T13:23:07.818Z,2.40
2019-04-22T13:25:35.051Z,2.08
2019-04-22T13:28:03.013Z,2.22
2019-04-22T13:30:30.471Z,2.00
2019-04-22T13:32:58.647Z,2.22
2019-04-22T13:35:26.635Z,1.90
2019-04-22T13:37:54.972Z,2.27
2019-04-22T13:40:23.351Z,2.05
2019-04-22T13:42:51.501Z,2.15
2019-04-22T13:45:20.013Z,2.20
2019-04-22T13:48:06.866Z,1.80
2019-04-22T13:50:49.538Z,1.75
2019-04-22T13:53:30.105Z,2.17
2019-04-22T13:55:48.185Z,2.12
2019-04-22T13:58:01.124Z,2.02
2019-04-22T14:00:22.437Z,1.70
2019-04-22T14:03:08.918Z,2.00
2019-04-22T14:05:37.103Z,2.10
2019-04-22T14:08:04.834Z,1.80
2019-04-22T14:10:34.456Z,1.75
2019-04-22T14:13:02.021Z,2.22
2019-04-22T14:15:29.892Z,2.00
2019-04-22T14:17:56.865Z,2.55
2019-04-22T14:20:25.842Z,2.05
2019-04-22T14:22:59.281Z,1.90
2019-04-22T14:25:26.475Z,2.00
2019-04-22T14:28:01.733Z,2.40
2019-04-22T14:30:22.280Z,2.72
2019-04-22T14:32:49.147Z,2.42
2019-04-22T14:35:18.960Z,1.65
2019-04-22T14:37:46.095Z,1.85
2019-04-22T14:40:14.493Z,1.92
2019-04-22T14:43:00.606Z,1.80
2019-04-22T14:45:41.785Z,1.60
2019-04-22T14:48:07.736Z,1.57
2019-04-22T14:50:30.619Z,2.02
2019-04-22T14:53:01.001Z,1.75
2019-04-22T14:55:15.649Z,1.65
2019-04-22T14:57:38.324Z,1.62
2019-04-22T15:00:08.114Z,1.57
2019-04-22T15:02:37.541Z,1.80
2019-04-22T15:05:05.950Z,1.50
2019-04-22T15:07:32.997Z,1.60
2019-04-22T15:09:59.993Z,1.98
2019-04-22T15:12:36.741Z,1.62
2019-04-22T15:14:59.664Z,1.62
2019-04-22T15:17:33.193Z,1.50
2019-04-22T15:20:09.916Z,1.22
2019-04-22T15:22:44.314Z,1.37
2019-04-22T15:25:14.629Z,1.70
2019-04-22T15:27:41.799Z,1.50
2019-04-22T15:30:09.704Z,1.60
2019-04-22T15:32:36.500Z,2.25
2019-04-22T15:35:04.986Z,1.67
2019-04-22T15:37:33.065Z,2.10
2019-04-22T15:40:00.639Z,2.17
2019-04-22T15:42:33.951Z,2.05
2019-04-22T15:44:58.038Z,2.15
2019-04-22T15:47:29.062Z,1.80
2019-04-22T15:49:58.245Z,2.05
2019-04-22T15:52:33.329Z,2.10
2019-04-22T15:54:54.117Z,1.98
2019-04-22T15:57:20.842Z,1.90
2019-04-22T16:00:06.820Z,2.17
2019-04-22T16:02:19.437Z,3.67
2019-04-22T16:04:48.491Z,2.05
2019-04-22T16:07:16.852Z,1.98
2019-04-22T16:09:43.685Z,3.47
2019-04-22T16:12:20.041Z,2.40
2019-04-22T16:14:45.392Z,1.50
2019-04-22T16:17:08.898Z,1.90
2019-04-22T16:19:37.017Z,2.40
2019-04-22T16:22:09.335Z,17.98
2019-04-22T16:24:50.269Z,2.02
2019-04-22T16:27:20.744Z,1.55
2019-04-22T16:29:47.525Z,1.77
2019-04-22T16:32:15.537Z,1.60
2019-04-22T16:34:42.600Z,1.55
2019-04-22T16:37:10.477Z,1.80
2019-04-22T16:39:38.851Z,1.50
2019-04-22T16:42:23.961Z,1.42
2019-04-22T16:44:40.720Z,1.40
2019-04-22T16:47:08.014Z,1.20
2019-04-22T16:49:35.065Z,1.50
2019-04-22T16:52:01.964Z,1.47
2019-04-22T16:54:28.795Z,1.32
2019-04-22T16:56:55.861Z,1.25
2019-04-22T16:59:24.212Z,1.35
2019-04-22T17:02:17.112Z,1.42
2019-04-22T17:05:11.450Z,1.52
2019-04-22T17:07:40.286Z,1.60
2019-04-22T17:10:13.526Z,0.90
2019-04-22T17:12:48.816Z,1.27
2019-04-22T17:15:12.207Z,1.30
2019-04-22T17:17:39.155Z,1.42
2019-04-22T17:20:07.215Z,1.82
2019-04-22T17:22:35.432Z,1.90
2019-04-22T17:25:02.693Z,1.87
2019-04-22T17:27:31.473Z,1.30
2019-04-22T17:29:58.985Z,1.75
2019-04-22T17:32:27.360Z,1.35
2019-04-22T17:34:54.679Z,1.37
2019-04-22T17:37:26.534Z,1.47
2019-04-22T17:40:09.768Z,1.87
2019-04-22T17:42:39.928Z,1.52
2019-04-22T17:45:31.763Z,1.80
2019-04-22T17:48:15.555Z,1.52
2019-04-22T17:50:57.789Z,1.92
2019-04-22T17:53:21.527Z,1.62
2019-04-22T17:55:49.213Z,1.90
2019-04-22T17:58:22.284Z,1.65
2019-04-22T18:00:43.425Z,1.85
2019-04-22T18:03:03.210Z,2.25
2019-04-22T18:05:32.215Z,1.70
2019-04-22T18:08:15.441Z,1.60
2019-04-22T18:10:43.981Z,1.80
2019-04-22T18:13:14.327Z,1.95
2019-04-22T18:15:38.949Z,1.42
2019-04-22T18:18:15.409Z,1.98
2019-04-22T18:20:30.789Z,2.02
2019-04-22T18:22:54.836Z,1.80
2019-04-22T18:25:27.704Z,1.85
2019-04-22T18:28:13.493Z,1.95
2019-04-22T18:30:24.302Z,1.90
2019-04-22T18:33:02.820Z,1.98
2019-04-22T18:35:26.937Z,2.30
2019-04-22T18:38:03.362Z,2.05
2019-04-22T18:40:30.956Z,1.87
2019-04-22T18:43:03.598Z,2.02
2019-04-22T18:45:39.720Z,2.00
2019-04-22T18:47:52.813Z,2.00
2019-04-22T18:50:45.190Z,2.27
2019-04-22T18:53:44.952Z,1.98
2019-04-22T18:56:13.933Z,1.90
2019-04-22T18:58:33.762Z,2.33
2019-04-22T19:00:48.171Z,1.70
2019-04-22T19:03:20.266Z,2.12
2019-04-22T19:06:09.540Z,2.10
2019-04-22T19:08:30.417Z,2.67
2019-04-22T19:11:08.377Z,2.93
2019-04-22T19:16:14.353Z,3.30
2019-04-22T19:18:35.036Z,3.87
2019-04-22T19:21:02.415Z,3.53
2019-04-22T19:23:28.079Z,3.63
2019-04-22T19:25:52.058Z,3.90
2019-04-22T19:28:40.416Z,4.00
2019-04-22T19:31:01.593Z,4.03
2019-04-22T19:33:24.615Z,3.87
2019-04-22T19:35:49.152Z,3.83
2019-04-22T19:38:13.279Z,4.37
2019-04-22T19:41:00.507Z,4.33
2019-04-22T19:43:22.889Z,4.10
2019-04-22T19:45:44.347Z,4.27
2019-04-22T19:48:23.381Z,4.63
2019-04-22T19:50:54.446Z,4.13
2019-04-22T19:53:21.226Z,4.50
2019-04-22T19:55:46.492Z,4.60
2019-04-22T19:58:15.041Z,4.13
2019-04-22T20:00:52.031Z,4.53
2019-04-22T20:03:57.868Z,3.70
2019-04-22T20:06:45.098Z,4.70
2019-04-22T20:09:20.602Z,4.60
2019-04-22T20:11:43.728Z,4.43
2019-04-22T20:14:12.748Z,4.30
2019-04-22T20:16:41.414Z,4.10
2019-04-22T20:19:12.364Z,4.10
2019-04-22T20:21:40.495Z,4.07
2019-04-22T20:23:57.160Z,3.73
2019-04-22T20:26:39.345Z,4.50
2019-04-22T20:29:06.720Z,3.90
2019-04-22T20:31:39.154Z,4.17
2019-04-22T20:34:12.959Z,3.50
2019-04-22T20:36:55.373Z,3.87
2019-04-22T20:38:59.301Z,3.20
2019-04-22T20:41:30.389Z,3.23
2019-04-22T20:43:56.679Z,3.50
2019-04-22T20:46:23.636Z,3.47
2019-04-22T20:48:54.964Z,3.30
2019-04-22T20:51:28.116Z,3.07
2019-04-22T20:53:56.529Z,3.20
2019-04-22T20:56:18.699Z,2.97
2019-04-22T20:58:54.657Z,2.97
2019-04-22T21:01:16.134Z,3.03
2019-04-22T21:03:42.033Z,2.93
2019-04-22T21:06:15.011Z,2.40
2019-04-22T21:08:47.569Z,3.13
2019-04-22T21:11:17.375Z,2.60
2019-04-22T21:13:40.984Z,2.43
2019-04-22T21:16:16.835Z,3.10
2019-04-22T21:18:37.493Z,2.60
2019-04-22T21:21:13.808Z,2.93
2019-04-22T21:23:33.896Z,2.23
2019-04-22T21:26:11.527Z,2.90
2019-04-22T21:28:38.351Z,2.60
2019-04-22T21:31:10.589Z,2.80
2019-04-22T21:33:40.837Z,3.00
2019-04-22T21:36:16.815Z,2.73
2019-04-22T21:38:39.864Z,2.73
2019-04-22T21:41:08.233Z,2.47
2019-04-22T21:43:40.485Z,2.80
2019-04-22T21:46:04.182Z,2.73
2019-04-22T21:48:36.965Z,2.90
2019-04-22T21:51:06.035Z,2.90
2019-04-22T21:53:41.662Z,2.63
2019-04-22T21:56:13.010Z,2.73
2019-04-22T21:58:31.802Z,2.90
2019-04-22T22:01:28.249Z,2.83
2019-04-22T22:03:50.644Z,3.27
2019-04-22T22:06:14.141Z,3.10
2019-04-22T22:08:55.083Z,3.20
2019-04-22T22:11:13.856Z,3.10
2019-04-22T22:13:48.831Z,3.20
2019-04-22T22:16:16.096Z,3.10
2019-04-22T22:18:42.001Z,3.40
2019-04-22T22:21:34.958Z,3.30
2019-04-22T22:23:43.646Z,3.07
2019-04-22T22:26:06.801Z,3.50
2019-04-22T22:28:51.410Z,2.80
2019-04-22T22:33:47.307Z,3.10
2019-04-22T22:36:08.657Z,3.20
2019-04-22T22:38:29.693Z,3.40
2019-04-22T22:40:48.012Z,3.23
2019-04-22T22:43:22.691Z,3.33
2019-04-22T22:45:54.453Z,3.53
2019-04-22T22:48:36.419Z,3.40
2019-04-22T22:50:58.522Z,3.97
2019-04-22T22:56:00.435Z,3.60
2019-04-22T22:58:34.532Z,3.80
2019-04-22T23:00:56.237Z,3.90
2019-04-22T23:06:00.142Z,3.37
2019-04-22T23:08:39.893Z,3.20
2019-04-22T23:11:00.986Z,3.60
2019-04-22T23:13:25.653Z,3.90
2019-04-22T23:15:44.368Z,3.33
2019-04-22T23:18:03.839Z,3.57
2019-04-22T23:20:36.107Z,3.80
2019-04-22T23:23:23.904Z,3.70
2019-04-22T23:25:54.972Z,4.10
2019-04-22T23:28:37.209Z,3.87
2019-04-22T23:31:17.512Z,4.20
2019-04-22T23:33:49.814Z,3.80
2019-04-22T23:36:36.976Z,3.57
2019-04-22T23:39:17.073Z,4.13
2019-04-22T23:41:46.268Z,4.00
2019-04-22T23:46:48.927Z,3.63
2019-04-22T23:49:11.707Z,4.27
2019-04-22T23:51:55.150Z,3.70
2019-04-22T23:54:18.638Z,4.23
2019-04-22T23:56:42.273Z,4.00
2019-04-22T23:59:35.534Z,4.30
